Time;durP1;ratioP1;P1;durP2;ratioP2;P2;SDS_P1;SDS_P2;PMS_P1;PMS_P2;Temp;Humidity;BMP_temperature;BMP_pressure;BME280_temperature;BME280_humidity;BME280_pressure;Samples;Min_cycle;Max_cycle;Signal;HPM_P1;HPM_P2
2022/03/11 00:00:39;;;;;;;40.90;13.50;;;;;;;-2.63;53.38;102128.98;52563;1273;1016528;-59
2022/03/11 00:03:13;;;;;;;39.60;12.40;;;;;;;-2.66;53.44;102127.40;52691;1273;1016476;-60
2022/03/11 00:05:45;;;;;;;34.60;12.40;;;;;;;-2.68;53.39;102131.95;52634;1273;1016457;-60
2022/03/11 00:08:17;;;;;;;45.20;14.50;;;;;;;-2.70;53.56;102131.10;52353;1273;1015898;-60
2022/03/11 00:10:49;;;;;;;49.50;16.30;;;;;;;-2.72;53.45;102131.58;52681;1273;1017095;-60
2022/03/11 00:13:23;;;;;;;49.60;15.00;;;;;;;-2.73;53.68;102135.62;52693;1273;1016642;-58
2022/03/11 00:15:55;;;;;;;46.70;15.20;;;;;;;-2.74;53.66;102132.86;52704;1273;1016600;-59
2022/03/11 00:18:27;;;;;;;45.50;15.20;;;;;;;-2.74;53.65;102140.65;52732;1273;1016338;-58
2022/03/11 00:20:58;;;;;;;45.60;15.70;;;;;;;-2.76;53.67;102135.38;52605;1273;1016401;-59
2022/03/11 00:23:30;;;;;;;42.60;14.90;;;;;;;-2.79;53.67;102138.07;52544;1273;1016856;-59
2022/03/11 00:26:02;;;;;;;48.90;16.60;;;;;;;-2.81;53.76;102136.13;52578;1273;1016695;-59
2022/03/11 00:28:34;;;;;;;49.70;16.40;;;;;;;-2.82;53.67;102136.96;52652;1273;1016346;-59
2022/03/11 00:31:06;;;;;;;47.60;14.00;;;;;;;-2.83;53.77;102131.92;52591;1273;1016089;-59
2022/03/11 00:33:38;;;;;;;45.00;15.60;;;;;;;-2.85;53.75;102126.25;52550;1273;1015989;-59
2022/03/11 00:36:10;;;;;;;43.10;14.40;;;;;;;-2.85;53.88;102125.33;52586;1273;1016308;-59
2022/03/11 00:38:42;;;;;;;46.80;17.40;;;;;;;-2.87;53.89;102124.87;52564;1273;1016088;-59
2022/03/11 00:41:13;;;;;;;48.90;15.90;;;;;;;-2.87;53.95;102121.41;52756;1273;1015573;-58
2022/03/11 00:43:45;;;;;;;47.40;17.10;;;;;;;-2.88;53.95;102117.88;52666;1273;1016580;-59
2022/03/11 00:46:17;;;;;;;37.60;14.60;;;;;;;-2.88;54.03;102115.06;52695;1273;1019032;-58
2022/03/11 00:48:48;;;;;;;47.80;16.00;;;;;;;-2.91;53.99;102112.80;52556;1273;1018442;-59
2022/03/11 00:51:20;;;;;;;43.70;16.00;;;;;;;-2.93;54.13;102113.52;52582;1273;1016420;-59
2022/03/11 00:53:51;;;;;;;45.80;17.40;;;;;;;-2.95;54.20;102113.61;52642;1271;1016018;-59
2022/03/11 00:56:24;;;;;;;43.20;15.50;;;;;;;-2.96;54.17;102118.33;52592;1273;1016620;-60
2022/03/11 00:58:55;;;;;;;45.10;16.40;;;;;;;-2.98;54.31;102121.53;52662;1274;1016354;-59
2022/03/11 01:01:27;;;;;;;39.80;13.30;;;;;;;-3.01;54.17;102118.08;52596;1273;1016300;-59
2022/03/11 01:03:59;;;;;;;41.60;15.80;;;;;;;-3.04;54.28;102119.06;52608;1273;1016336;-59
2022/03/11 01:06:31;;;;;;;35.90;13.30;;;;;;;-3.05;54.38;102116.32;52695;1273;1016603;-59
2022/03/11 01:09:03;;;;;;;43.50;15.20;;;;;;;-3.05;54.55;102117.31;52726;1273;1016227;-59
2022/03/11 01:11:36;;;;;;;45.50;16.00;;;;;;;-3.06;54.45;102113.63;52695;1273;1016233;-60
2022/03/11 01:14:10;;;;;;;49.20;15.90;;;;;;;-3.06;54.43;102110.80;52797;1273;1016458;-59
2022/03/11 01:16:41;;;;;;;50.00;17.80;;;;;;;-3.08;54.55;102106.55;52698;1273;1016330;-59
2022/03/11 01:19:13;;;;;;;53.70;18.40;;;;;;;-3.09;54.57;102107.62;52669;1273;1016392;-60
2022/03/11 01:21:45;;;;;;;49.50;17.50;;;;;;;-3.11;54.64;102101.39;52534;1275;1016346;-60
2022/03/11 01:24:17;;;;;;;44.10;17.80;;;;;;;-3.13;54.79;102100.91;52635;1276;1016214;-59
2022/03/11 01:26:49;;;;;;;51.50;17.40;;;;;;;-3.16;54.85;102102.86;52637;1276;1016101;-59
2022/03/11 01:29:21;;;;;;;53.80;18.60;;;;;;;-3.18;54.82;102102.08;52533;1275;1016129;-60
2022/03/11 01:31:53;;;;;;;45.20;15.70;;;;;;;-3.19;54.83;102099.79;52632;1276;1016615;-60
2022/03/11 01:34:25;;;;;;;46.80;16.40;;;;;;;-3.21;54.87;102097.40;52574;1276;1018345;-59
2022/03/11 01:36:57;;;;;;;43.50;14.90;;;;;;;-3.23;54.94;102095.83;52528;1276;1016162;-58
2022/03/11 01:39:28;;;;;;;54.30;16.80;;;;;;;-3.26;54.96;102091.99;52549;1275;1016727;-59
2022/03/11 01:42:00;;;;;;;48.70;15.30;;;;;;;-3.28;55.09;102088.11;52562;1276;1016743;-58
2022/03/11 01:44:32;;;;;;;41.80;15.70;;;;;;;-3.29;55.02;102085.20;52819;1276;1016260;-58
2022/03/11 01:47:04;;;;;;;39.40;13.90;;;;;;;-3.30;55.12;102086.66;52641;1276;1016496;-61
2022/03/11 01:49:36;;;;;;;37.30;13.40;;;;;;;-3.31;55.15;102084.42;52658;1275;1016487;-59
2022/03/11 01:52:09;;;;;;;40.70;13.90;;;;;;;-3.32;55.25;102083.27;52605;1274;1016532;-59
2022/03/11 01:54:43;;;;;;;37.60;13.90;;;;;;;-3.33;55.29;102081.87;52519;1276;1016761;-59
2022/03/11 01:57:17;;;;;;;40.80;13.50;;;;;;;-3.33;55.24;102083.02;52518;1275;1015758;-59
2022/03/11 01:59:49;;;;;;;36.30;13.70;;;;;;;-3.33;55.31;102081.92;52473;1275;1016626;-59
2022/03/11 02:02:20;;;;;;;39.90;14.30;;;;;;;-3.38;55.30;102079.97;52588;1276;1016521;-58
2022/03/11 02:04:52;;;;;;;41.20;14.90;;;;;;;-3.43;55.39;102080.91;52577;1275;1016622;-58
2022/03/11 02:07:25;;;;;;;35.90;14.80;;;;;;;-3.46;55.46;102081.42;52529;1276;1016214;-57
2022/03/11 02:09:57;;;;;;;42.50;14.60;;;;;;;-3.49;55.59;102083.67;52636;1276;1016870;-58
2022/03/11 02:12:34;;;;;;;41.20;15.10;;;;;;;-3.51;55.58;102083.60;52565;1275;1015726;-59
2022/03/11 02:15:09;;;;;;;40.70;14.90;;;;;;;-3.53;55.64;102083.63;52517;1278;1016431;-59
2022/03/11 02:17:41;;;;;;;40.50;14.70;;;;;;;-3.54;55.63;102083.16;52642;1275;1016598;-58
2022/03/11 02:20:14;;;;;;;41.60;13.00;;;;;;;-3.58;55.75;102085.78;52633;1273;1016613;-60
2022/03/11 02:22:52;;;;;;;34.30;12.60;;;;;;;-3.61;55.78;102084.18;52788;1274;1016461;-59
2022/03/11 02:25:25;;;;;;;41.30;13.70;;;;;;;-3.67;55.86;102083.60;52609;1275;1015863;-60
2022/03/11 02:27:56;;;;;;;36.20;12.10;;;;;;;-3.70;55.93;102086.69;52648;1274;1016570;-60
2022/03/11 02:30:29;;;;;;;35.30;12.60;;;;;;;-3.73;56.10;102080.67;52617;1276;1016246;-59
2022/03/11 02:33:00;;;;;;;33.20;11.90;;;;;;;-3.72;56.14;102083.34;52687;1275;1016695;-59
2022/03/11 02:35:32;;;;;;;29.80;11.50;;;;;;;-3.74;56.10;102082.88;52585;1276;1016632;-58
2022/03/11 02:38:03;;;;;;;32.20;12.40;;;;;;;-3.77;56.24;102076.63;52601;1275;1016315;-59
2022/03/11 02:40:35;;;;;;;37.90;11.90;;;;;;;-3.78;56.30;102076.05;52639;1276;1016351;-58
2022/03/11 02:43:07;;;;;;;31.60;11.70;;;;;;;-3.80;56.29;102075.42;52677;1276;1016601;-60
2022/03/11 02:45:39;;;;;;;35.00;12.70;;;;;;;-3.83;56.41;102078.59;52650;1274;1018153;-59
2022/03/11 02:48:11;;;;;;;38.30;11.60;;;;;;;-3.87;56.48;102079.02;52656;1275;1016710;-57
2022/03/11 02:50:43;;;;;;;34.40;11.60;;;;;;;-3.91;56.57;102079.11;52638;1276;1016629;-58
2022/03/11 02:53:15;;;;;;;35.90;12.10;;;;;;;-3.93;56.64;102081.12;52624;1275;1016448;-58
2022/03/11 02:55:46;;;;;;;37.60;13.70;;;;;;;-3.95;56.74;102076.36;52635;1275;1015884;-58
2022/03/11 02:58:18;;;;;;;34.00;12.50;;;;;;;-3.98;56.72;102075.02;52585;1274;1016661;-58
2022/03/11 03:00:50;;;;;;;33.60;12.00;;;;;;;-4.02;56.89;102072.55;52683;1276;1017247;-58
2022/03/11 03:03:21;;;;;;;37.50;12.00;;;;;;;-4.04;56.91;102077.61;52718;1274;1016880;-58
2022/03/11 03:05:53;;;;;;;35.10;13.00;;;;;;;-4.05;56.91;102084.98;52643;1275;1018761;-58
2022/03/11 03:08:25;;;;;;;43.60;15.60;;;;;;;-4.04;56.88;102081.49;52606;1274;1016308;-58
2022/03/11 03:10:56;;;;;;;42.20;17.80;;;;;;;-4.04;56.89;102084.33;52618;1274;1017114;-58
2022/03/11 03:13:28;;;;;;;47.60;17.50;;;;;;;-4.04;57.04;102079.58;52752;1275;1016629;-62
2022/03/11 03:16:00;;;;;;;42.40;16.20;;;;;;;-4.06;57.06;102079.73;52587;1276;1018161;-58
2022/03/11 03:18:32;;;;;;;40.10;14.60;;;;;;;-4.05;56.98;102080.85;52637;1274;1016472;-57
2022/03/11 03:21:03;;;;;;;36.00;14.30;;;;;;;-4.03;57.11;102080.46;52874;1265;1016370;-76
2022/03/11 03:23:35;;;;;;;39.70;14.50;;;;;;;-4.01;57.09;102080.77;52836;1273;1018201;-76
2022/03/11 03:26:06;;;;;;;35.10;12.20;;;;;;;-4.03;57.01;102072.20;52807;1273;1016362;-76
2022/03/11 03:28:37;;;;;;;35.10;12.20;;;;;;;-4.03;57.21;102075.62;52708;1273;1016318;-76
2022/03/11 03:31:09;;;;;;;34.00;12.30;;;;;;;-4.06;57.15;102079.96;52818;1272;1016574;-75
2022/03/11 03:33:41;;;;;;;38.20;11.60;;;;;;;-4.11;57.21;102079.09;52683;1275;1016229;-76
2022/03/11 03:36:15;;;;;;;31.80;10.10;;;;;;;-4.13;57.26;102078.25;52835;1273;1016562;-76
2022/03/11 03:38:47;;;;;;;35.60;12.00;;;;;;;-4.15;57.26;102080.82;52712;1273;1016041;-76
2022/03/11 03:41:19;;;;;;;34.60;12.30;;;;;;;-4.19;57.39;102074.83;52767;1273;1016060;-76
2022/03/11 03:43:50;;;;;;;38.90;12.90;;;;;;;-4.23;57.42;102078.04;52708;1273;1020115;-76
2022/03/11 03:46:22;;;;;;;37.60;12.50;;;;;;;-4.29;57.48;102077.90;52843;1273;1016337;-76
2022/03/11 03:48:53;;;;;;;37.60;12.80;;;;;;;-4.36;57.61;102078.67;52867;1273;1016339;-76
2022/03/11 03:51:24;;;;;;;38.60;12.20;;;;;;;-4.42;57.67;102073.84;52662;1274;1018172;-76
2022/03/11 03:53:56;;;;;;;41.10;13.40;;;;;;;-4.47;57.93;102072.41;52839;1273;1016603;-76
2022/03/11 03:56:27;;;;;;;35.90;12.70;;;;;;;-4.52;58.07;102072.45;52842;1273;1016397;-76
2022/03/11 03:59:04;;;;;;;40.30;14.30;;;;;;;-4.58;58.14;102076.11;52768;1273;1015951;-76
2022/03/11 04:01:37;;;;;;;37.80;14.10;;;;;;;-4.62;58.25;102074.63;52825;1273;1016782;-77
2022/03/11 04:04:09;;;;;;;38.80;14.20;;;;;;;-4.65;58.43;102074.35;52782;1273;1016463;-76
2022/03/11 04:06:42;;;;;;;37.70;12.30;;;;;;;-4.68;58.47;102071.61;52802;1272;1016417;-76
2022/03/11 04:09:13;;;;;;;37.90;12.30;;;;;;;-4.68;58.41;102070.66;52695;1276;1016121;-76
2022/03/11 04:11:44;;;;;;;40.90;11.40;;;;;;;-4.67;58.67;102072.73;52799;1273;1016693;-76
2022/03/11 04:14:15;;;;;;;43.10;13.60;;;;;;;-4.67;58.68;102075.63;52693;1273;1017532;-76
2022/03/11 04:16:47;;;;;;;32.50;11.40;;;;;;;-4.69;58.58;102068.97;52733;1273;1016698;-76
2022/03/11 04:19:18;;;;;;;38.40;12.50;;;;;;;-4.70;58.69;102068.59;52826;1273;1016667;-76
2022/03/11 04:21:49;;;;;;;42.60;12.00;;;;;;;-4.71;58.70;102071.34;52696;1276;1019882;-76
2022/03/11 04:24:23;;;;;;;36.70;9.60;;;;;;;-4.72;58.64;102069.66;52816;1273;1016563;-76
2022/03/11 04:26:54;;;;;;;31.70;10.80;;;;;;;-4.74;58.76;102075.30;52781;1273;1019728;-76
2022/03/11 04:29:26;;;;;;;36.80;10.50;;;;;;;-4.76;58.77;102075.21;52680;1273;1017269;-76
2022/03/11 04:31:58;;;;;;;34.60;11.50;;;;;;;-4.75;58.88;102078.83;52823;1273;1020075;-76
2022/03/11 04:34:29;;;;;;;36.30;11.30;;;;;;;-4.74;58.80;102074.42;52765;1271;1018889;-76
2022/03/11 04:37:01;;;;;;;32.10;10.30;;;;;;;-4.74;58.84;102075.26;52798;1273;1016682;-76
2022/03/11 04:39:32;;;;;;;32.20;10.90;;;;;;;-4.75;58.81;102077.18;52731;1273;1017409;-76
2022/03/11 04:42:06;;;;;;;31.90;9.80;;;;;;;-4.74;58.76;102075.27;52838;1273;1016328;-77
2022/03/11 04:44:39;;;;;;;36.90;10.40;;;;;;;-4.74;58.74;102074.94;52808;1273;1016362;-77
2022/03/11 04:47:10;;;;;;;35.00;10.90;;;;;;;-4.75;58.77;102072.79;52769;1275;1016591;-76
2022/03/11 04:49:42;;;;;;;32.10;10.30;;;;;;;-4.78;58.72;102076.11;52684;1273;1016958;-76
2022/03/11 04:52:13;;;;;;;29.90;10.00;;;;;;;-4.81;58.83;102069.21;52816;1273;1016408;-76
2022/03/11 04:54:44;;;;;;;35.80;11.00;;;;;;;-4.82;58.86;102071.98;52702;1273;1019725;-76
2022/03/11 04:57:16;;;;;;;32.20;9.60;;;;;;;-4.83;58.85;102076.75;52872;1275;1016642;-80
2022/03/11 04:59:47;;;;;;;28.90;10.10;;;;;;;-4.83;58.83;102080.54;53394;1273;1016618;-80
2022/03/11 05:02:26;;;;;;;32.00;10.60;;;;;;;-4.84;58.82;102083.36;53075;1273;1016935;-78
2022/03/11 05:04:57;;;;;;;32.40;10.60;;;;;;;-4.83;58.83;102086.34;53126;1273;1016480;-78
2022/03/11 05:07:29;;;;;;;26.30;9.70;;;;;;;-4.82;58.92;102083.45;53040;1273;1016288;-78
2022/03/11 05:10:01;;;;;;;35.20;10.10;;;;;;;-4.78;58.94;102086.18;52962;1273;1016393;-77
2022/03/11 05:12:35;;;;;;;35.70;10.70;;;;;;;-4.75;58.80;102080.91;53170;1273;1016667;-79
2022/03/11 05:15:08;;;;;;;38.80;10.70;;;;;;;-4.74;58.97;102082.75;52958;1273;1016802;-78
2022/03/11 05:17:40;;;;;;;32.90;10.20;;;;;;;-4.74;58.71;102077.37;52948;1273;1016448;-79
2022/03/11 05:20:13;;;;;;;34.60;10.80;;;;;;;-4.76;58.80;102082.61;52922;1273;1016773;-80
2022/03/11 05:22:45;;;;;;;30.30;10.00;;;;;;;-4.78;58.76;102082.17;53078;1273;1016139;-79
2022/03/11 05:25:17;;;;;;;37.20;11.20;;;;;;;-4.80;58.84;102084.84;53098;1273;1019219;-78
2022/03/11 05:27:50;;;;;;;35.30;10.80;;;;;;;-4.81;58.69;102083.87;53010;1273;1016472;-79
2022/03/11 05:30:23;;;;;;;35.30;10.60;;;;;;;-4.82;58.89;102092.14;53113;1273;1016653;-79
2022/03/11 05:32:55;;;;;;;35.30;11.90;;;;;;;-4.82;58.90;102089.13;53364;1274;1016111;-77
2022/03/11 05:35:27;;;;;;;39.90;12.50;;;;;;;-4.80;58.85;102087.55;53480;1273;1016657;-78
2022/03/11 05:37:59;;;;;;;36.80;11.00;;;;;;;-4.80;58.78;102090.61;53442;1273;1016248;-78
2022/03/11 05:40:31;;;;;;;27.10;9.30;;;;;;;-4.78;58.85;102088.36;53286;1273;1016158;-78
2022/03/11 05:43:03;;;;;;;37.40;11.10;;;;;;;-4.78;58.67;102089.96;52973;1275;1017301;-78
2022/03/11 05:45:35;;;;;;;33.30;9.70;;;;;;;-4.78;58.76;102097.21;52995;1273;1016315;-80
2022/03/11 05:48:09;;;;;;;37.50;10.70;;;;;;;-4.76;58.80;102099.48;52996;1273;1016445;-76
2022/03/11 05:50:41;;;;;;;46.50;14.70;;;;;;;-4.75;58.78;102107.92;53060;1273;1016488;-77
2022/03/11 05:53:13;;;;;;;106.20;36.30;;;;;;;-4.72;58.92;102103.58;53010;1273;1016482;-77
2022/03/11 05:55:44;;;;;;;85.90;42.10;;;;;;;-4.70;58.74;102101.34;52935;1273;1016600;-77
2022/03/11 05:58:16;;;;;;;62.60;34.90;;;;;;;-4.67;58.71;102100.75;52895;1273;1016127;-76
2022/03/11 06:00:47;;;;;;;68.40;28.50;;;;;;;-4.65;58.66;102098.24;52922;1273;1018283;-78
2022/03/11 06:03:18;;;;;;;55.80;19.90;;;;;;;-4.62;58.75;102102.27;52874;1273;1019541;-77
2022/03/11 06:05:51;;;;;;;52.10;21.80;;;;;;;-4.57;58.78;102107.23;53047;1273;1016735;-79
2022/03/11 06:08:23;;;;;;;54.40;20.80;;;;;;;-4.52;58.70;102108.82;52880;1273;1016469;-78
2022/03/11 06:10:54;;;;;;;36.90;13.00;;;;;;;-4.48;58.60;102109.98;52773;1273;1016522;-78
2022/03/11 06:13:25;;;;;;;36.00;12.20;;;;;;;-4.44;58.67;102108.73;52866;1273;1019702;-79
2022/03/11 06:15:56;;;;;;;33.40;11.10;;;;;;;-4.40;58.58;102110.45;52823;1274;1016093;-78
2022/03/11 06:18:28;;;;;;;33.60;11.70;;;;;;;-4.35;58.47;102108.82;52825;1273;1016274;-79
2022/03/11 06:20:59;;;;;;;32.20;9.90;;;;;;;-4.32;58.55;102106.67;52978;1274;1016213;-79
2022/03/11 06:23:32;;;;;;;32.10;10.40;;;;;;;-4.28;58.58;102110.88;52832;1273;1015678;-79
2022/03/11 06:26:04;;;;;;;35.40;11.00;;;;;;;-4.24;58.41;102111.80;52901;1274;1016533;-79
2022/03/11 06:28:36;;;;;;;40.40;11.70;;;;;;;-4.21;58.33;102113.57;52827;1275;1016618;-79
2022/03/11 06:31:08;;;;;;;33.70;11.30;;;;;;;-4.16;58.22;102113.83;52942;1273;1015998;-79
2022/03/11 06:33:40;;;;;;;39.30;12.50;;;;;;;-4.13;58.16;102115.96;52915;1273;1018074;-78
2022/03/11 06:36:12;;;;;;;29.30;9.20;;;;;;;-4.10;58.26;102119.18;52888;1273;1017680;-78
2022/03/11 06:38:43;;;;;;;35.30;9.80;;;;;;;-4.04;58.22;102125.87;52829;1273;1016693;-78
2022/03/11 06:41:15;;;;;;;32.00;8.70;;;;;;;-3.99;58.25;102128.16;52796;1273;1016058;-79
2022/03/11 06:43:47;;;;;;;32.60;10.20;;;;;;;-3.93;58.27;102126.80;52890;1273;1018445;-78
2022/03/11 06:46:19;;;;;;;33.80;9.70;;;;;;;-3.87;58.21;102125.67;52867;1273;1017450;-78
2022/03/11 06:48:50;;;;;;;28.80;8.90;;;;;;;-3.83;58.03;102124.52;52986;1272;1016687;-78
2022/03/11 06:51:22;;;;;;;31.40;10.60;;;;;;;-3.78;58.07;102130.63;52705;1274;1017839;-78
2022/03/11 06:53:53;;;;;;;34.30;10.70;;;;;;;-3.71;58.01;102131.73;52788;1273;1016630;-78
2022/03/11 06:56:26;;;;;;;25.90;8.80;;;;;;;-3.66;57.93;102131.05;52905;1273;1016227;-78
2022/03/11 06:58:58;;;;;;;33.70;11.00;;;;;;;-3.61;57.93;102134.17;52811;1274;1016394;-78
2022/03/11 07:01:29;;;;;;;34.00;10.00;;;;;;;-3.57;57.77;102136.20;52877;1273;1016641;-78
2022/03/11 07:04:01;;;;;;;32.00;10.90;;;;;;;-3.51;57.64;102138.34;53054;1273;1016270;-78
2022/03/11 07:06:33;;;;;;;39.30;13.10;;;;;;;-3.45;57.56;102141.04;53086;1273;1016618;-78
2022/03/11 07:09:04;;;;;;;32.60;9.80;;;;;;;-3.38;57.43;102141.59;53081;1273;1016255;-79
2022/03/11 07:11:36;;;;;;;32.40;10.70;;;;;;;-3.32;57.43;102145.08;54107;1273;1015978;-80
2022/03/11 07:14:08;;;;;;;33.40;11.00;;;;;;;-3.25;57.37;102143.59;54146;1273;1016961;-79
2022/03/11 07:16:39;;;;;;;32.60;8.40;;;;;;;-3.18;57.26;102144.05;54045;1273;1016276;-80
2022/03/11 07:19:10;;;;;;;27.90;8.80;;;;;;;-3.12;57.20;102137.79;54193;1273;1016396;-80
2022/03/11 07:21:42;;;;;;;30.40;10.10;;;;;;;-3.05;57.08;102137.88;54013;1273;1018987;-80
2022/03/11 07:24:13;;;;;;;34.40;10.00;;;;;;;-2.99;56.97;102138.69;54111;1273;1015747;-80
2022/03/11 07:26:45;;;;;;;31.10;9.90;;;;;;;-2.92;56.80;102132.12;54021;1273;1016468;-80
2022/03/11 07:29:16;;;;;;;27.40;8.40;;;;;;;-2.85;56.84;102129.29;54157;1273;1016196;-80
2022/03/11 07:31:48;;;;;;;31.20;9.60;;;;;;;-2.79;56.59;102126.59;54208;1273;1016312;-80
2022/03/11 07:34:23;;;;;;;31.00;10.30;;;;;;;-2.72;56.62;102127.38;54066;1273;1016014;-80
2022/03/11 07:36:55;;;;;;;33.80;10.30;;;;;;;-2.64;56.47;102128.15;54089;1273;1016091;-80
2022/03/11 07:39:28;;;;;;;29.80;8.70;;;;;;;-2.57;56.38;102130.27;54052;1273;1016033;-80
2022/03/11 07:41:59;;;;;;;27.40;8.30;;;;;;;-2.49;56.32;102132.45;53943;1274;1016569;-80
2022/03/11 07:44:30;;;;;;;33.70;9.20;;;;;;;-2.39;56.22;102132.66;54068;1274;1016162;-80
2022/03/11 07:47:02;;;;;;;26.40;7.70;;;;;;;-2.31;56.18;102127.13;53960;1273;1017271;-80
2022/03/11 07:49:34;;;;;;;26.50;7.80;;;;;;;-2.21;55.64;102128.09;53966;1273;1016153;-80
2022/03/11 07:52:07;;;;;;;24.70;6.30;;;;;;;-2.13;55.77;102124.70;53913;1274;1016458;-80
2022/03/11 07:54:38;;;;;;;34.20;7.70;;;;;;;-2.04;55.14;102126.95;53948;1274;1016437;-80
2022/03/11 07:57:10;;;;;;;19.60;6.10;;;;;;;-1.97;55.07;102131.41;53943;1275;1016192;-81
2022/03/11 07:59:42;;;;;;;25.40;7.20;;;;;;;-1.90;54.53;102128.23;53700;1274;1016428;-80
2022/03/11 08:02:14;;;;;;;23.90;7.20;;;;;;;-1.85;54.27;102126.42;53655;1273;1015826;-81
2022/03/11 08:04:46;;;;;;;25.20;7.90;;;;;;;-1.78;54.20;102122.86;53734;1274;1016181;-81
2022/03/11 08:07:17;;;;;;;23.60;5.90;;;;;;;-1.70;54.07;102122.20;53740;1274;1016404;-81
2022/03/11 08:09:49;;;;;;;18.10;5.10;;;;;;;-1.61;53.44;102123.54;53792;1275;1016126;-81
2022/03/11 08:12:21;;;;;;;20.70;5.90;;;;;;;-1.54;52.92;102122.55;53738;1275;1016561;-81
2022/03/11 08:14:53;;;;;;;20.60;4.60;;;;;;;-1.45;52.67;102122.47;53804;1274;1017072;-81
2022/03/11 08:17:25;;;;;;;24.10;5.30;;;;;;;-1.38;52.35;102124.52;53804;1274;1017515;-81
2022/03/11 08:19:57;;;;;;;20.00;5.50;;;;;;;-1.30;52.53;102124.82;53801;1274;1016512;-81
2022/03/11 08:22:28;;;;;;;21.60;5.20;;;;;;;-1.24;52.96;102125.98;53802;1274;1016041;-80
2022/03/11 08:24:59;;;;;;;17.40;4.30;;;;;;;-1.17;52.63;102127.73;53842;1274;1016651;-81
2022/03/11 08:27:31;;;;;;;20.40;5.90;;;;;;;-1.07;52.45;102125.96;53882;1274;1016165;-81
2022/03/11 08:30:02;;;;;;;19.20;5.40;;;;;;;-1.00;52.09;102122.90;53752;1273;1016171;-81
2022/03/11 08:32:34;;;;;;;22.40;5.30;;;;;;;-0.89;51.55;102123.63;53883;1274;1016167;-81
2022/03/11 08:35:06;;;;;;;20.30;5.00;;;;;;;-0.80;51.69;102119.06;53753;1274;1016581;-81
2022/03/11 08:37:39;;;;;;;22.30;5.60;;;;;;;-0.72;51.60;102120.43;53864;1274;1015917;-81
2022/03/11 08:40:13;;;;;;;19.70;4.10;;;;;;;-0.66;51.22;102115.41;53836;1274;1016217;-81
2022/03/11 08:42:44;;;;;;;21.10;4.70;;;;;;;-0.59;51.18;102114.77;53799;1273;1015684;-81
2022/03/11 08:45:16;;;;;;;24.00;5.30;;;;;;;-0.54;51.22;102120.06;53924;1274;1016412;-81
2022/03/11 08:47:47;;;;;;;22.50;6.20;;;;;;;-0.46;51.12;102122.05;53883;1274;1016063;-81
2022/03/11 08:50:20;;;;;;;21.20;5.20;;;;;;;-0.39;51.12;102119.45;53807;1274;1016542;-81
2022/03/11 08:52:52;;;;;;;23.00;6.00;;;;;;;-0.33;50.76;102116.67;53812;1274;1016038;-81
2022/03/11 08:55:24;;;;;;;25.40;6.80;;;;;;;-0.27;50.68;102109.81;53871;1274;1015876;-81
2022/03/11 08:57:55;;;;;;;23.30;5.90;;;;;;;-0.22;50.54;102106.70;53854;1274;1016301;-81
2022/03/11 09:00:27;;;;;;;19.20;4.60;;;;;;;-0.15;50.44;102111.73;53851;1274;1015718;-81
2022/03/11 09:02:58;;;;;;;21.30;5.80;;;;;;;-0.04;50.29;102112.27;53899;1274;1016784;-81
2022/03/11 09:05:29;;;;;;;22.00;5.90;;;;;;;0.03;49.82;102116.64;53869;1274;1016092;-80
2022/03/11 09:08:01;;;;;;;22.30;5.80;;;;;;;0.08;49.59;102114.08;53800;1274;1016551;-80
2022/03/11 09:10:33;;;;;;;21.90;5.70;;;;;;;0.14;49.82;102111.98;53812;1274;1016423;-80
2022/03/11 09:13:05;;;;;;;19.00;6.00;;;;;;;0.21;49.91;102113.84;53898;1274;1016189;-80
2022/03/11 09:15:36;;;;;;;27.20;7.50;;;;;;;0.25;49.55;102105.60;53822;1274;1016436;-80
2022/03/11 09:18:08;;;;;;;36.00;11.70;;;;;;;0.29;49.35;102102.79;53827;1274;1016199;-80
2022/03/11 09:20:40;;;;;;;32.30;10.50;;;;;;;0.33;49.16;102100.26;53902;1263;1016423;-56
2022/03/11 09:23:12;;;;;;;26.80;6.70;;;;;;;0.38;48.98;102094.63;52707;1273;1017102;-57
2022/03/11 09:25:44;;;;;;;19.00;5.70;;;;;;;0.44;48.75;102091.75;52686;1274;1020334;-57
2022/03/11 09:28:16;;;;;;;18.80;4.40;;;;;;;0.48;48.41;102092.21;52687;1274;1016636;-58
2022/03/11 09:30:47;;;;;;;18.00;4.40;;;;;;;0.52;47.98;102094.80;52598;1274;1016446;-55
2022/03/11 09:33:19;;;;;;;24.90;5.90;;;;;;;0.58;48.13;102088.55;52635;1274;1016582;-57
2022/03/11 09:35:51;;;;;;;27.40;6.90;;;;;;;0.65;48.09;102090.55;52599;1275;1015821;-57
2022/03/11 09:38:22;;;;;;;18.30;5.10;;;;;;;0.73;47.76;102088.24;52653;1274;1016454;-56
2022/03/11 09:40:55;;;;;;;20.00;4.60;;;;;;;0.78;47.58;102091.79;52711;1274;1016836;-57
2022/03/11 09:43:28;;;;;;;22.10;6.20;;;;;;;0.87;47.48;102090.90;52547;1273;1016591;-55
2022/03/11 09:46:00;;;;;;;17.90;5.20;;;;;;;0.95;47.38;102097.33;52610;1275;1017274;-56
2022/03/11 09:48:33;;;;;;;16.30;3.60;;;;;;;1.02;46.89;102098.54;52610;1275;1017243;-56
2022/03/11 09:51:06;;;;;;;19.40;4.70;;;;;;;1.11;46.58;102096.16;52608;1278;1016620;-57
2022/03/11 09:53:42;;;;;;;18.90;6.20;;;;;;;1.17;46.48;102096.64;52634;1274;1016215;-57
2022/03/11 09:56:13;;;;;;;21.20;6.90;;;;;;;1.26;46.08;102098.90;52568;1274;1016643;-58
2022/03/11 09:58:46;;;;;;;14.00;4.30;;;;;;;1.34;45.79;102095.31;52592;1275;1015877;-56
2022/03/11 10:01:18;;;;;;;17.90;4.50;;;;;;;1.37;45.60;102090.26;52527;1274;1016450;-56
2022/03/11 10:03:50;;;;;;;18.30;5.40;;;;;;;1.40;45.59;102092.19;52611;1275;1016299;-55
2022/03/11 10:06:40;;;;;;;18.10;5.30;;;;;;;1.44;45.47;102094.52;52605;1275;1017686;-56
2022/03/11 10:09:33;;;;;;;20.80;5.20;;;;;;;1.49;45.04;102089.39;52568;1274;1016080;-57
2022/03/11 10:12:07;;;;;;;18.60;7.30;;;;;;;1.53;45.37;102085.61;52626;1274;1016282;-57
2022/03/11 10:14:40;;;;;;;21.80;6.40;;;;;;;1.61;45.22;102083.98;52580;1274;1018346;-57
2022/03/11 10:17:22;;;;;;;15.10;4.00;;;;;;;1.69;44.80;102084.15;52633;1274;1016983;-56
2022/03/11 10:20:00;;;;;;;15.00;4.40;;;;;;;1.76;44.72;102087.94;52501;1274;1016593;-56
2022/03/11 10:22:34;;;;;;;24.90;6.10;;;;;;;1.86;44.27;102089.09;52699;1274;1016245;-56
2022/03/11 10:25:13;;;;;;;24.00;7.40;;;;;;;1.90;44.10;102086.70;52580;1274;1016729;-57
2022/03/11 10:28:00;;;;;;;27.80;7.60;;;;;;;1.97;44.08;102087.73;52765;1274;1016481;-58
2022/03/11 10:30:34;;;;;;;22.40;5.70;;;;;;;2.06;43.93;102086.35;52627;1274;1015971;-57
2022/03/11 10:33:08;;;;;;;16.90;4.10;;;;;;;2.09;43.28;102088.25;52682;1275;1015985;-57
2022/03/11 10:35:44;;;;;;;25.30;6.60;;;;;;;2.12;43.20;102088.92;52790;1274;1019166;-57
2022/03/11 10:38:17;;;;;;;19.40;5.40;;;;;;;2.18;43.08;102086.23;52754;1274;1016456;-57
2022/03/11 10:40:54;;;;;;;19.10;4.90;;;;;;;2.26;42.99;102085.46;52655;1274;1016608;-56
2022/03/11 10:43:29;;;;;;;16.20;4.20;;;;;;;2.33;42.80;102081.05;52607;1274;1016918;-56
2022/03/11 10:46:09;;;;;;;18.20;4.40;;;;;;;2.37;42.69;102081.08;52538;1274;1016271;-57
2022/03/11 10:48:47;;;;;;;15.70;4.40;;;;;;;2.38;42.47;102082.90;52697;1274;1016003;-56
2022/03/11 10:51:33;;;;;;;19.00;5.30;;;;;;;2.44;42.46;102079.73;52657;1274;1016572;-57
2022/03/11 10:54:07;;;;;;;18.60;3.80;;;;;;;2.51;42.08;102068.60;52629;1275;1016077;-57
2022/03/11 10:56:40;;;;;;;15.60;4.10;;;;;;;2.56;41.65;102063.14;52718;1274;1016629;-57
2022/03/11 10:59:24;;;;;;;21.00;4.40;;;;;;;2.57;41.87;102062.66;52737;1274;1016174;-58
2022/03/11 11:01:58;;;;;;;23.40;5.70;;;;;;;2.60;41.58;102059.23;52586;1274;1016568;-57
2022/03/11 11:04:30;;;;;;;18.80;5.30;;;;;;;2.67;41.13;102057.24;52762;1274;1016734;-57
2022/03/11 11:07:03;;;;;;;19.10;5.20;;;;;;;2.73;41.41;102054.77;52686;1274;1015850;-57
2022/03/11 11:09:37;;;;;;;17.70;4.90;;;;;;;2.79;40.93;102053.39;52587;1274;1016445;-56
2022/03/11 11:12:11;;;;;;;15.80;3.80;;;;;;;2.85;40.92;102053.05;52641;1274;1016214;-56
2022/03/11 11:14:42;;;;;;;23.00;4.50;;;;;;;2.89;40.52;102047.48;52778;1274;1016314;-57
2022/03/11 11:17:15;;;;;;;21.80;4.80;;;;;;;2.95;40.59;102041.31;52707;1274;1016700;-56
2022/03/11 11:19:49;;;;;;;24.20;7.80;;;;;;;2.98;40.30;102039.52;52705;1274;1016762;-57
2022/03/11 11:22:22;;;;;;;18.20;4.00;;;;;;;2.99;40.00;102036.77;52697;1274;1015911;-57